Time;durP1;ratioP1;P1;durP2;ratioP2;P2;SDS_P1;SDS_P2;PMS_P1;PMS_P2;Temp;Humidity;BMP_temperature;BMP_pressure;BME280_temperature;BME280_humidity;BME280_pressure;Samples;Min_cycle;Max_cycle;Signal;HPM_P1;HPM_P2
2021/09/25 00:02:10;;;;;;;;;16.50;14.25;;;;;18.70;61.02;101236.84;4922114;28;46326;-66
2021/09/25 00:04:36;;;;;;;;;18.75;18.50;;;;;18.93;61.03;101269.81;4923338;28;45418;-66
2021/09/25 00:07:02;;;;;;;;;18.00;17.00;;;;;18.73;61.25;101246.63;4923050;28;45157;-66
2021/09/25 00:09:27;;;;;;;;;18.75;16.00;;;;;18.90;60.97;101266.44;4923381;28;45327;-66
2021/09/25 00:11:53;;;;;;;;;12.75;12.75;;;;;18.69;60.87;101242.34;4923307;28;45585;-66
2021/09/25 00:14:18;;;;;;;;;20.25;19.00;;;;;18.65;61.09;101233.53;4938006;28;46213;-66
2021/09/25 00:16:43;;;;;;;;;17.75;16.75;;;;;18.57;61.09;101230.41;4942408;28;45380;-66
2021/09/25 00:19:09;;;;;;;;;19.50;18.25;;;;;18.75;61.01;101260.06;4961814;28;45318;-66
2021/09/25 00:21:35;;;;;;;;;14.75;14.00;;;;;18.80;61.45;101266.06;4961812;28;45460;-66
2021/09/25 00:24:00;;;;;;;;;17.75;17.75;;;;;18.74;61.15;101256.44;4961754;28;45422;-66
2021/09/25 00:26:26;;;;;;;;;18.25;15.75;;;;;18.74;61.22;101259.16;4961628;28;45315;-66
2021/09/25 00:28:53;;;;;;;;;15.75;14.25;;;;;18.75;61.28;101257.34;4944415;28;45369;-66
2021/09/25 00:31:20;;;;;;;;;18.25;15.00;;;;;18.82;61.44;101261.44;4961749;28;45311;-66
2021/09/25 00:33:45;;;;;;;;;15.00;15.00;;;;;18.63;61.34;101227.34;4940941;28;46292;-66
2021/09/25 00:36:11;;;;;;;;;15.25;15.00;;;;;18.67;61.43;101241.56;4958384;28;45500;-66
2021/09/25 00:38:37;;;;;;;;;24.25;21.25;;;;;18.86;61.34;101271.13;4961506;28;45553;-66
2021/09/25 00:41:03;;;;;;;;;19.25;16.25;;;;;18.73;61.34;101243.03;4961433;28;45615;-66
2021/09/25 00:43:29;;;;;;;;;15.75;15.75;;;;;18.84;61.04;101255.00;4953367;28;45473;-66
2021/09/25 00:45:54;;;;;;;;;20.75;18.75;;;;;18.83;61.32;101249.69;4955185;28;45572;-66
2021/09/25 00:48:20;;;;;;;;;18.75;18.25;;;;;18.72;61.22;101236.75;4961582;28;45324;-66
2021/09/25 00:50:45;;;;;;;;;15.75;15.75;;;;;18.88;61.42;101266.50;4961048;28;45480;-66
2021/09/25 00:53:11;;;;;;;;;20.75;20.75;;;;;18.87;61.03;101262.91;4961234;28;45441;-66
2021/09/25 00:55:36;;;;;;;;;18.75;17.75;;;;;18.86;61.17;101260.31;4964869;28;45373;-66
2021/09/25 00:58:04;;;;;;;;;17.25;16.75;;;;;18.92;61.33;101268.06;4961539;28;45390;-66
2021/09/25 01:00:32;;;;;;;;;18.00;18.00;;;;;18.79;61.03;101253.47;4943720;28;45406;-66
2021/09/25 01:02:58;;;;;;;;;15.00;14.00;;;;;18.64;61.57;101228.22;4961292;28;45287;-66
2021/09/25 01:05:24;;;;;;;;;17.00;17.00;;;;;18.85;61.35;101264.84;4959684;28;45539;-66
2021/09/25 01:07:51;;;;;;;;;19.00;17.50;;;;;18.70;61.21;101244.09;4959755;28;45372;-66
2021/09/25 01:10:17;;;;;;;;;20.50;18.50;;;;;18.72;61.18;101242.16;4943513;28;45552;-66
2021/09/25 01:12:44;;;;;;;;;15.75;14.50;;;;;18.72;61.12;101244.84;4961080;28;45377;-66
2021/09/25 01:15:10;;;;;;;;;17.75;15.25;;;;;18.66;61.38;101227.19;4960910;28;45325;-66
2021/09/25 01:17:36;;;;;;;;;22.25;19.25;;;;;18.70;61.28;101238.69;4960922;28;45295;-66
2021/09/25 01:20:04;;;;;;;;;20.00;16.00;;;;;18.80;61.34;101253.41;4960897;28;45338;-66
2021/09/25 01:22:30;;;;;;;;;19.75;18.50;;;;;18.80;61.22;101260.66;4960683;28;45485;-66
2021/09/25 01:24:55;;;;;;;;;18.75;15.75;;;;;18.86;61.20;101260.31;4960894;28;45447;-66
2021/09/25 01:27:21;;;;;;;;;21.75;21.00;;;;;18.79;61.08;101245.38;4961020;28;45961;-66
2021/09/25 01:29:47;;;;;;;;;16.25;16.25;;;;;18.82;61.48;101247.91;4960724;28;45422;-66
2021/09/25 01:32:14;;;;;;;;;16.75;16.75;;;;;18.53;61.23;101193.72;4960742;28;45380;-66
2021/09/25 01:34:39;;;;;;;;;22.75;21.75;;;;;18.79;61.74;101245.38;4960223;28;45256;-66
2021/09/25 01:37:05;;;;;;;;;25.00;22.25;;;;;18.61;61.34;101217.56;4960213;28;45434;-66
2021/09/25 01:39:32;;;;;;;;;16.50;16.25;;;;;18.70;61.59;101244.94;4960173;28;45443;-66
2021/09/25 01:41:58;;;;;;;;;18.00;18.00;;;;;18.50;61.73;101212.81;4960603;28;46362;-66
2021/09/25 01:44:26;;;;;;;;;16.25;16.00;;;;;18.61;61.74;101241.91;4947675;28;45433;-66
2021/09/25 01:46:53;;;;;;;;;20.00;18.25;;;;;18.33;61.85;101194.88;4940293;28;45270;-66
2021/09/25 01:49:18;;;;;;;;;18.00;17.50;;;;;18.52;62.13;101225.25;4956733;28;45282;-66
2021/09/25 01:51:44;;;;;;;;;21.25;17.00;;;;;18.51;61.77;101230.78;4939979;28;47269;-66
2021/09/25 01:54:12;;;;;;;;;21.25;19.25;;;;;18.47;61.92;101243.56;4939338;28;45775;-66
2021/09/25 01:56:39;;;;;;;;;16.50;16.00;;;;;18.21;61.80;101191.03;4964369;28;45241;-66
2021/09/25 01:59:05;;;;;;;;;19.50;18.00;;;;;18.25;62.38;101194.44;4960489;28;45483;-66
2021/09/25 02:01:31;;;;;;;;;16.25;14.50;;;;;18.44;62.38;101235.66;4960515;28;46777;-66
2021/09/25 02:03:56;;;;;;;;;18.00;16.50;;;;;18.41;62.33;101222.31;4960232;28;45382;-66
2021/09/25 02:06:22;;;;;;;;;20.25;19.00;;;;;18.22;62.20;101189.22;4960037;28;45465;-66
2021/09/25 02:08:47;;;;;;;;;20.00;20.00;;;;;18.39;62.30;101215.25;4942600;28;45558;-66
2021/09/25 02:11:12;;;;;;;;;24.75;21.25;;;;;18.39;62.30;101215.25;4958972;28;48208;-66
2021/09/25 02:13:38;;;;;;;;;16.50;16.50;;;;;18.15;62.55;101172.47;4960174;28;45452;-66
2021/09/25 02:16:04;;;;;;;;;21.00;18.50;;;;;18.21;62.44;101193.75;4959315;28;45297;-66
2021/09/25 02:18:29;;;;;;;;;22.00;22.00;;;;;18.32;62.95;101218.28;4946207;28;45603;-66
2021/09/25 02:20:55;;;;;;;;;22.50;19.75;;;;;18.05;62.85;101172.13;4963491;28;45417;-66
2021/09/25 02:23:21;;;;;;;;;20.75;20.00;;;;;18.12;62.83;101189.72;4963426;28;45449;-66
2021/09/25 02:25:46;;;;;;;;;14.50;14.25;;;;;18.11;62.94;101181.72;4963930;28;45255;-66
2021/09/25 02:28:12;;;;;;;;;22.00;22.00;;;;;18.19;62.68;101206.44;4962069;28;45429;-66
2021/09/25 02:30:37;;;;;;;;;20.00;18.00;;;;;18.22;63.07;101219.78;4963603;28;45582;-66
2021/09/25 02:33:03;;;;;;;;;17.00;17.00;;;;;18.21;62.81;101214.47;4945811;28;45377;-66
2021/09/25 02:35:28;;;;;;;;;18.00;14.75;;;;;18.21;62.98;101215.38;4944004;28;45582;-66
2021/09/25 02:37:54;;;;;;;;;16.25;16.00;;;;;18.02;62.97;101188.50;4945744;28;45481;-66
2021/09/25 02:40:21;;;;;;;;;17.00;15.75;;;;;18.14;62.92;101203.13;4963303;28;45365;-66
2021/09/25 02:42:47;;;;;;;;;22.25;20.25;;;;;17.98;63.17;101167.19;4942488;28;45358;-66
2021/09/25 02:45:14;;;;;;;;;17.75;17.75;;;;;18.07;62.86;101181.00;4926496;28;45354;-66
2021/09/25 02:47:41;;;;;;;;;19.25;17.25;;;;;18.21;62.63;101204.56;4959518;28;45307;-66
2021/09/25 02:50:08;;;;;;;;;18.50;18.50;;;;;18.20;63.11;101189.28;4962845;28;45343;-66
2021/09/25 02:52:34;;;;;;;;;16.75;16.25;;;;;18.14;63.36;101187.81;4962861;28;45679;-66
2021/09/25 02:54:59;;;;;;;;;19.00;17.50;;;;;18.22;62.76;101194.59;4963638;28;45389;-66
2021/09/25 02:57:25;;;;;;;;;23.50;20.00;;;;;18.25;63.13;101200.69;4966092;28;45445;-66
2021/09/25 02:59:50;;;;;;;;;23.75;21.75;;;;;17.99;63.05;101160.78;4963117;28;46168;-66
2021/09/25 03:02:16;;;;;;;;;19.75;19.50;;;;;18.14;62.87;101185.13;4962953;28;45488;-66
2021/09/25 03:04:41;;;;;;;;;19.25;19.00;;;;;18.21;62.94;101193.75;4962810;28;45850;-66
2021/09/25 03:07:10;;;;;;;;;20.00;17.50;;;;;18.24;62.75;101195.38;4962721;28;45576;-66
2021/09/25 03:09:36;;;;;;;;;20.50;19.25;;;;;18.21;63.07;101185.63;4962686;28;46129;-66
2021/09/25 03:12:01;;;;;;;;;22.50;22.50;;;;;18.07;62.99;101175.59;4945403;28;45363;-66
2021/09/25 03:14:27;;;;;;;;;23.50;21.50;;;;;18.19;62.94;101198.34;4962876;28;45497;-66
2021/09/25 03:16:53;;;;;;;;;22.50;22.00;;;;;18.21;62.69;101184.75;4962688;28;45466;-66
2021/09/25 03:19:18;;;;;;;;;22.50;20.50;;;;;18.00;62.70;101158.00;4962536;28;45431;-66
2021/09/25 03:21:44;;;;;;;;;20.50;20.00;;;;;18.02;63.01;101160.63;4962538;28;45445;-66
2021/09/25 03:24:09;;;;;;;;;21.25;21.25;;;;;18.05;62.61;101169.41;4962768;28;45499;-66
2021/09/25 03:26:35;;;;;;;;;22.75;21.00;;;;;18.15;62.82;101191.38;4962553;28;45334;-66
2021/09/25 03:29:00;;;;;;;;;23.50;20.00;;;;;18.00;62.79;101149.91;4961530;28;45415;-66
2021/09/25 03:31:26;;;;;;;;;23.25;20.25;;;;;18.12;63.15;101170.81;4962594;28;45298;-66
2021/09/25 03:33:51;;;;;;;;;25.50;22.75;;;;;18.23;62.61;101186.41;4962472;28;45299;-66
2021/09/25 03:36:16;;;;;;;;;22.50;21.50;;;;;18.01;62.88;101157.06;4962162;28;45475;-66
2021/09/25 03:38:42;;;;;;;;;25.75;24.50;;;;;18.14;63.29;101176.13;4962070;28;45433;-66
2021/09/25 03:41:07;;;;;;;;;26.00;26.00;;;;;18.20;62.99;101188.44;4962183;28;45380;-66
2021/09/25 03:43:33;;;;;;;;;26.75;25.50;;;;;18.16;63.30;101185.03;4953982;28;45448;-66
2021/09/25 03:45:59;;;;;;;;;25.75;24.50;;;;;17.89;62.93;101146.94;4927549;28;45928;-66
2021/09/25 03:48:24;;;;;;;;;20.50;19.25;;;;;17.83;63.00;101145.44;4962294;28;46313;-66
2021/09/25 03:50:50;;;;;;;;;20.75;19.25;;;;;17.93;63.00;101172.84;4944583;28;45807;-66
2021/09/25 03:53:15;;;;;;;;;27.25;26.00;;;;;17.84;63.74;101162.50;4962328;28;45955;-66
2021/09/25 03:55:41;;;;;;;;;27.75;26.50;;;;;17.90;63.22;101179.25;4966049;28;45285;-66
2021/09/25 03:58:06;;;;;;;;;25.50;23.00;;;;;17.67;63.45;101137.31;4962118;28;45286;-66
2021/09/25 04:00:31;;;;;;;;;28.25;26.25;;;;;17.85;63.65;101177.75;4962232;28;45342;-66
2021/09/25 04:02:57;;;;;;;;;26.50;26.00;;;;;17.66;63.49;101146.38;4962263;28;45733;-66
2021/09/25 04:05:22;;;;;;;;;23.25;22.50;;;;;17.83;63.62;101176.97;4961587;28;45398;-66
2021/09/25 04:07:48;;;;;;;;;26.25;24.25;;;;;17.91;63.54;101188.25;4961825;28;45333;-66
2021/09/25 04:10:16;;;;;;;;;29.25;25.25;;;;;17.89;63.42;101177.53;4961687;28;45574;-66
2021/09/25 04:12:41;;;;;;;;;25.25;25.25;;;;;17.93;63.52;101184.50;4962150;28;45446;-66
2021/09/25 04:15:09;;;;;;;;;32.00;26.00;;;;;17.74;63.62;101154.94;4943609;28;45552;-66
2021/09/25 04:17:35;;;;;;;;;26.25;24.75;;;;;17.91;63.38;101172.91;4960211;28;47380;-66
2021/09/25 04:20:01;;;;;;;;;28.25;23.00;;;;;17.72;63.23;101147.84;4944184;28;45725;-66
2021/09/25 04:22:27;;;;;;;;;25.00;24.75;;;;;17.96;63.18;101183.47;4961943;28;45320;-66
2021/09/25 04:24:52;;;;;;;;;26.25;26.00;;;;;17.72;63.24;101140.63;4944201;28;45556;-66
2021/09/25 04:27:17;;;;;;;;;25.75;25.00;;;;;17.91;62.97;101161.25;4961617;28;45978;-66
2021/09/25 04:29:43;;;;;;;;;28.00;24.00;;;;;17.81;63.16;101154.56;4944217;28;45354;-66
2021/09/25 04:32:08;;;;;;;;;24.50;24.50;;;;;17.69;63.67;101129.13;4960587;28;45272;-66
2021/09/25 04:34:33;;;;;;;;;32.50;28.25;;;;;17.85;63.35;101162.41;4961216;28;45539;-66
2021/09/25 04:36:59;;;;;;;;;30.75;30.75;;;;;17.82;63.54;101161.72;4961661;28;45422;-66
2021/09/25 04:39:25;;;;;;;;;27.00;22.50;;;;;17.56;63.88;101129.81;4943823;28;45388;-66
2021/09/25 04:41:51;;;;;;;;;26.00;25.50;;;;;17.72;63.69;101162.22;4961545;28;45307;-66
2021/09/25 04:44:17;;;;;;;;;27.25;27.25;;;;;17.72;63.64;101158.66;4948489;28;45406;-66
2021/09/25 04:46:44;;;;;;;;;25.75;25.50;;;;;17.77;63.72;101172.78;4940775;28;48375;-66
2021/09/25 04:49:11;;;;;;;;;27.75;26.25;;;;;17.74;63.56;101159.44;4938971;28;45366;-66
2021/09/25 04:51:36;;;;;;;;;27.00;25.25;;;;;17.66;63.54;101145.50;4944301;28;45508;-66
2021/09/25 04:54:03;;;;;;;;;27.50;25.25;;;;;17.64;63.75;101151.00;4961236;28;45318;-66
2021/09/25 04:56:32;;;;;;;;;27.50;24.00;;;;;17.71;63.82;101157.81;4947732;28;45441;-66
2021/09/25 04:58:57;;;;;;;;;29.50;26.00;;;;;17.74;63.86;101163.03;4961150;28;45492;-66
2021/09/25 05:01:23;;;;;;;;;28.25;26.25;;;;;17.70;63.91;101160.59;4961345;28;45306;-66
2021/09/25 05:03:48;;;;;;;;;24.25;23.75;;;;;17.54;63.80;101136.25;4943513;28;45920;-66
2021/09/25 05:06:14;;;;;;;;;27.50;24.50;;;;;17.71;63.81;101157.81;4943276;28;48422;-66
2021/09/25 05:08:40;;;;;;;;;27.75;25.50;;;;;17.67;63.63;101158.91;4960827;28;45340;-66
2021/09/25 05:11:05;;;;;;;;;26.75;25.00;;;;;17.67;63.63;101158.91;4961295;28;45336;-66
2021/09/25 05:13:31;;;;;;;;;25.25;24.75;;;;;17.76;63.46;101171.03;4960875;28;45580;-66
2021/09/25 05:15:56;;;;;;;;;27.75;26.75;;;;;17.62;63.83;101139.41;4936784;28;47279;-66
2021/09/25 05:18:21;;;;;;;;;25.00;23.75;;;;;17.58;63.72;101143.25;4922350;28;45405;-66
2021/09/25 05:20:49;;;;;;;;;28.75;27.00;;;;;17.55;63.35;101138.00;4917894;28;45402;-66
2021/09/25 05:23:15;;;;;;;;;34.00;26.50;;;;;17.71;63.53;101155.09;4917541;28;45495;-66
2021/09/25 05:25:41;;;;;;;;;26.00;26.00;;;;;17.68;63.46;101146.31;4922422;28;45905;-66
2021/09/25 05:28:06;;;;;;;;;33.50;29.00;;;;;17.58;63.49;101133.31;4922090;28;45377;-66
2021/09/25 05:30:32;;;;;;;;;30.50;26.75;;;;;17.77;63.39;101160.16;4922565;28;45306;-66
2021/09/25 05:32:57;;;;;;;;;28.25;28.25;;;;;17.72;63.27;101148.72;4936877;28;45476;-66
2021/09/25 05:35:23;;;;;;;;;27.00;26.50;;;;;17.65;62.93;101144.63;4921892;28;46258;-66
2021/09/25 05:37:48;;;;;;;;;27.00;24.75;;;;;17.58;62.95;101138.69;4922030;28;45403;-66
2021/09/25 05:40:14;;;;;;;;;27.25;26.75;;;;;17.74;63.07;101163.03;4922274;28;45411;-66
2021/09/25 05:42:39;;;;;;;;;30.75;29.00;;;;;17.69;63.13;101153.44;4920584;28;45519;-66
2021/09/25 05:45:06;;;;;;;;;26.75;24.25;;;;;17.64;63.33;101151.00;4910893;28;45372;-66
2021/09/25 05:47:31;;;;;;;;;30.25;28.00;;;;;17.48;63.49;101121.28;4920626;28;45200;-66
2021/09/25 05:49:57;;;;;;;;;33.00;28.25;;;;;17.49;63.15;101123.03;4922174;28;45413;-66
2021/09/25 05:52:22;;;;;;;;;27.50;25.25;;;;;17.53;63.07;101129.13;4922693;28;45680;-66
2021/09/25 05:54:48;;;;;;;;;26.25;26.25;;;;;17.59;63.14;101150.38;4925488;28;46408;-66
2021/09/25 05:57:13;;;;;;;;;28.00;27.25;;;;;17.56;63.19;101143.31;4928898;28;45155;-66
2021/09/25 05:59:39;;;;;;;;;29.75;26.75;;;;;17.62;63.16;101152.03;4925668;28;45515;-66
2021/09/25 06:02:04;;;;;;;;;30.00;28.00;;;;;17.64;63.37;101151.00;4925311;28;45446;-66
2021/09/25 06:04:32;;;;;;;;;26.25;20.75;;;;;17.64;63.30;101161.81;4924948;28;46197;-66
2021/09/25 06:06:58;;;;;;;;;29.25;26.25;;;;;17.59;63.46;101145.84;4925158;28;45358;-66
2021/09/25 06:09:23;;;;;;;;;29.00;27.25;;;;;17.59;63.24;101153.06;4925294;28;45477;-66
2021/09/25 06:11:51;;;;;;;;;33.25;27.75;;;;;17.37;63.42;101124.59;4923850;28;45630;-66
2021/09/25 06:14:17;;;;;;;;;30.75;29.50;;;;;17.43;63.46;101144.94;4922466;28;45806;-70
2021/09/25 06:16:43;;;;;;;;;31.00;29.50;;;;;17.58;63.57;101163.00;4923150;28;45564;-68
2021/09/25 06:19:10;;;;;;;;;33.00;28.25;;;;;17.44;63.34;101137.72;4924372;28;45260;-69
2021/09/25 06:21:38;;;;;;;;;35.50;32.00;;;;;17.48;63.32;101155.50;4924888;28;45314;-69
2021/09/25 06:24:04;;;;;;;;;30.75;29.25;;;;;17.25;63.36;101110.88;4923625;28;46597;-69
2021/09/25 06:26:34;;;;;;;;;33.00;29.00;;;;;17.58;63.83;101167.53;4938907;28;45272;-69
2021/09/25 06:29:12;;;;;;;;;;;;;;;;;;;;;
2021/09/25 06:31:40;;;;;;;;;33.75;30.75;;;;;17.23;63.51;101119.06;4923576;28;72948;-69
2021/09/25 06:34:08;;;;;;;;;33.00;31.00;;;;;17.27;63.53;101133.25;4923666;28;46772;-69
2021/09/25 06:36:40;;;;;;;;;32.00;30.50;;;;;17.36;63.43;101146.25;4922952;28;45534;-69
2021/09/25 06:39:10;;;;;;;;;31.50;29.75;;;;;17.38;63.85;101144.34;4923822;28;45283;-69
2021/09/25 06:41:38;;;;;;;;;35.50;31.00;;;;;17.42;63.42;101145.91;4923197;28;45423;-69
2021/09/25 06:44:05;;;;;;;;;31.50;29.50;;;;;17.36;63.79;101139.03;4923130;28;46435;-69
2021/09/25 06:46:53;;;;;;;;;34.50;31.75;;;;;17.43;64.01;101144.09;4922407;28;45572;-69
2021/09/25 06:49:21;;;;;;;;;34.25;31.25;;;;;17.62;63.83;101168.22;4920633;28;45516;-70
2021/09/25 06:51:47;;;;;;;;;36.00;33.00;;;;;17.48;63.70;101147.41;4920499;28;45597;-71
2021/09/25 06:54:15;;;;;;;;;34.75;32.00;;;;;17.57;64.09;101154.97;4923577;28;46073;-70
2021/09/25 06:56:45;;;;;;;;;33.50;31.25;;;;;17.46;63.79;101142.09;4925785;28;45763;-70
2021/09/25 06:59:10;;;;;;;;;35.50;32.75;;;;;17.43;64.01;101130.59;4923020;28;45618;-70
2021/09/25 07:01:38;;;;;;;;;34.50;31.25;;;;;17.27;63.79;101099.03;4922561;28;45465;-70
2021/09/25 07:04:04;;;;;;;;;33.50;29.75;;;;;17.40;64.28;101118.13;4921683;28;45845;-70
2021/09/25 07:06:34;;;;;;;;;40.50;35.00;;;;;17.24;64.11;101096.53;4923911;28;45239;-70
2021/09/25 07:09:02;;;;;;;;;44.75;36.75;;;;;17.55;64.37;101138.00;4918650;28;45686;-70
2021/09/25 07:11:29;;;;;;;;;47.50;40.00;;;;;17.46;63.96;101128.59;4915443;28;45477;-70
2021/09/25 07:13:57;;;;;;;;;38.00;33.00;;;;;17.32;64.31;101117.69;4936841;28;46071;-70
2021/09/25 07:16:23;;;;;;;;;43.25;36.75;;;;;17.21;64.50;101094.00;4937067;28;45714;-70
2021/09/25 07:18:49;;;;;;;;;46.00;37.50;;;;;17.27;64.12;101111.66;4961760;28;45524;-70
2021/09/25 07:21:14;;;;;;;;;43.75;36.50;;;;;17.25;64.46;101113.59;4962208;28;45486;-70
2021/09/25 07:23:43;;;;;;;;;39.50;35.25;;;;;17.50;64.20;101153.59;4961978;28;45539;-70
2021/09/25 07:26:09;;;;;;;;;43.00;35.50;;;;;17.54;64.45;101168.63;4962429;28;45624;-70
2021/09/25 07:28:34;;;;;;;;;42.75;36.50;;;;;17.54;64.04;101158.72;4962203;28;45231;-70
2021/09/25 07:31:01;;;;;;;;;44.00;36.25;;;;;17.50;64.18;101149.03;4961907;28;45385;-70
2021/09/25 07:33:27;;;;;;;;;41.50;35.50;;;;;17.55;64.69;101148.81;4958420;28;45232;-70
2021/09/25 07:35:52;;;;;;;;;43.50;36.25;;;;;17.54;64.52;101147.03;4958592;28;45231;-70
2021/09/25 07:38:18;;;;;;;;;44.50;37.50;;;;;17.51;64.82;101137.31;4961563;28;45263;-70
2021/09/25 07:40:43;;;;;;;;;42.00;35.00;;;;;17.54;64.42;101133.56;4961722;28;45638;-70
2021/09/25 07:43:09;;;;;;;;;43.75;36.75;;;;;17.50;64.45;101135.56;4961455;28;45328;-70
2021/09/25 07:45:35;;;;;;;;;40.75;34.25;;;;;17.50;64.40;101146.34;4961960;28;45584;-70
2021/09/25 07:48:01;;;;;;;;;40.75;34.50;;;;;17.52;64.40;101138.16;4961741;28;45438;-70
2021/09/25 07:50:27;;;;;;;;;46.75;38.25;;;;;17.53;64.39;101139.94;4961545;28;45534;-66
2021/09/25 07:52:56;;;;;;;;;46.00;38.25;;;;;17.43;64.96;101115.25;4960842;28;45560;-66
2021/09/25 07:55:23;;;;;;;;;43.50;37.00;;;;;17.53;64.80;101127.28;4964858;28;45731;-66
2021/09/25 07:57:48;;;;;;;;;25.50;23.25;;;;;17.51;65.31;101133.75;4970871;28;45450;-67
2021/09/25 08:00:15;;;;;;;;;46.00;38.25;;;;;17.54;65.09;101134.44;4961663;28;45212;-69
2021/09/25 08:02:41;;;;;;;;;44.00;35.00;;;;;17.56;65.23;101131.66;4961661;28;45393;-71
2021/09/25 08:05:07;;;;;;;;;36.75;31.50;;;;;17.58;65.02;101129.75;4961417;28;45983;-68
2021/09/25 08:07:33;;;;;;;;;41.75;36.00;;;;;17.64;64.54;101139.31;4961106;28;45498;-68
2021/09/25 08:09:58;;;;;;;;;36.25;32.50;;;;;17.63;64.90;101130.34;4960931;28;45417;-69
2021/09/25 08:12:24;;;;;;;;;35.50;31.50;;;;;17.65;64.84;101124.88;4943835;28;45426;-68
2021/09/25 08:14:49;;;;;;;;;33.25;31.25;;;;;17.69;64.53;101127.31;4961043;28;45378;-69
2021/09/25 08:17:14;;;;;;;;;33.00;31.00;;;;;17.76;64.74;101133.25;4961347;28;45314;-69
2021/09/25 08:19:40;;;;;;;;;36.50;33.00;;;;;17.78;64.28;101137.59;4960550;28;45585;-69
2021/09/25 08:22:05;;;;;;;;;34.50;31.25;;;;;17.80;64.48;101131.25;4960805;28;46438;-69
2021/09/25 08:24:31;;;;;;;;;38.00;32.50;;;;;17.82;64.22;101137.41;4960839;28;45235;-68
2021/09/25 08:26:57;;;;;;;;;35.50;32.50;;;;;17.83;64.55;101134.63;4961435;28;45370;-68
2021/09/25 08:29:23;;;;;;;;;33.50;32.00;;;;;17.87;64.29;101132.66;4961132;28;45607;-69
2021/09/25 08:31:48;;;;;;;;;36.25;33.50;;;;;17.84;64.24;101128.28;4943886;28;47097;-69
2021/09/25 08:34:14;;;;;;;;;33.75;31.50;;;;;17.85;64.16;101135.41;4960855;28;45252;-69
2021/09/25 08:36:40;;;;;;;;;34.75;32.00;;;;;17.89;63.86;101126.22;4944022;28;45350;-68
2021/09/25 08:39:07;;;;;;;;;40.75;33.00;;;;;17.95;63.90;101127.69;4960802;28;45438;-69
2021/09/25 08:41:34;;;;;;;;;41.25;36.00;;;;;17.99;64.10;101133.78;4961144;28;45531;-69
2021/09/25 08:44:00;;;;;;;;;39.75;33.75;;;;;18.02;64.31;101128.22;4949000;28;45283;-69
2021/09/25 08:46:25;;;;;;;;;36.50;34.50;;;;;18.06;63.70;101135.16;4960055;28;45565;-69
2021/09/25 08:48:50;;;;;;;;;38.25;35.00;;;;;18.06;64.05;101129.75;4960539;28;45392;-69
2021/09/25 08:51:16;;;;;;;;;41.75;35.25;;;;;18.14;64.60;101130.19;4960348;28;45433;-69
2021/09/25 08:53:41;;;;;;;;;37.75;34.75;;;;;18.18;64.32;101129.06;4960844;28;45338;-69
2021/09/25 08:56:07;;;;;;;;;39.00;35.00;;;;;18.19;63.90;101119.13;4964930;28;45523;-69
2021/09/25 08:58:32;;;;;;;;;42.00;36.75;;;;;18.25;63.89;101126.88;4961052;28;45221;-69
2021/09/25 09:00:57;;;;;;;;;33.00;31.00;;;;;18.28;63.59;101121.31;4942509;28;47163;-68
2021/09/25 09:03:34;;;;;;;;;37.25;33.50;;;;;18.33;64.15;101130.88;4960788;28;45447;-69
2021/09/25 09:06:04;;;;;;;;;36.50;34.75;;;;;18.38;63.39;101135.16;4960325;28;45558;-69
2021/09/25 09:08:30;;;;;;;;;37.50;33.25;;;;;18.41;63.01;101126.84;4959996;28;45481;-69
2021/09/25 09:10:55;;;;;;;;;43.00;35.75;;;;;18.44;63.29;101126.66;4941922;28;47264;-70
2021/09/25 09:13:21;;;;;;;;;41.75;33.75;;;;;18.50;63.92;101124.47;4955060;28;45609;-68
2021/09/25 09:15:50;;;;;;;;;53.50;43.75;;;;;18.55;63.39;101129.59;4942894;28;45513;-68
2021/09/25 09:18:18;;;;;;;;;35.75;33.75;;;;;18.64;62.85;101133.56;4959970;28;45529;-68
2021/09/25 09:21:07;;;;;;;;;28.75;27.00;;;;;18.67;62.70;101134.25;4939866;28;48237;-68
2021/09/25 09:23:35;;;;;;;;;32.50;30.75;;;;;18.68;62.46;101138.72;4958481;28;45721;-68
2021/09/25 09:26:02;;;;;;;;;31.75;30.75;;;;;18.71;62.90;101134.97;4959740;28;45446;-69
2021/09/25 09:28:33;;;;;;;;;31.75;28.75;;;;;18.78;63.09;101125.50;4961243;28;45609;-68
2021/09/25 09:31:00;;;;;;;;;32.00;31.00;;;;;18.81;63.26;101121.75;4939674;28;47056;-68
2021/09/25 09:33:33;;;;;;;;;31.25;31.25;;;;;18.91;62.65;101132.91;4928636;28;45442;-70
2021/09/25 09:36:19;;;;;;;;;31.75;28.75;;;;;18.97;62.78;101127.13;4959657;28;45480;-70
2021/09/25 09:38:51;;;;;;;;;30.25;30.25;;;;;19.03;63.10;101116.78;4960252;28;45477;-70
2021/09/25 09:41:24;;;;;;;;;28.75;28.00;;;;;19.08;62.70;101111.09;4960404;28;45437;-70
2021/09/25 09:43:51;;;;;;;;;24.75;24.75;;;;;19.16;62.93;101119.63;4950130;28;45418;-70
2021/09/25 09:46:17;;;;;;;;;28.25;26.50;;;;;19.21;62.72;101112.06;4958615;28;45318;-70
2021/09/25 09:48:46;;;;;;;;;25.25;24.25;;;;;19.31;62.03;101109.66;4960432;28;45370;-70
2021/09/25 09:51:12;;;;;;;;;27.50;25.25;;;;;19.36;62.07;101101.22;4960466;28;45431;-70
2021/09/25 09:53:44;;;;;;;;;23.75;22.25;;;;;19.43;61.72;101095.34;4960633;28;45374;-70
2021/09/25 09:56:21;;;;;;;;;26.25;25.00;;;;;19.47;61.91;101096.00;4947005;28;45687;-70
2021/09/25 09:59:05;;;;;;;;;29.25;25.00;;;;;19.50;61.48;101095.81;4942826;28;45600;-70
2021/09/25 10:01:31;;;;;;;;;25.50;25.50;;;;;19.55;62.18;101101.81;4960494;28;45570;-70
2021/09/25 10:04:00;;;;;;;;;23.75;22.75;;;;;19.59;61.65;101095.19;4960031;28;45354;-69
2021/09/25 10:06:25;;;;;;;;;27.50;25.00;;;;;19.65;61.16;101106.63;4960471;28;45829;-70
2021/09/25 10:08:51;;;;;;;;;29.25;27.50;;;;;19.67;61.48;101101.97;4960225;28;45299;-69
2021/09/25 10:11:16;;;;;;;;;30.00;27.25;;;;;19.71;61.13;101106.22;4960385;28;45999;-70
2021/09/25 10:13:42;;;;;;;;;29.75;27.25;;;;;19.74;61.21;101100.59;4960241;28;45176;-71
2021/09/25 10:16:10;;;;;;;;;25.25;22.25;;;;;19.79;60.97;101090.38;4960502;28;45400;-70
2021/09/25 10:18:35;;;;;;;;;24.50;24.50;;;;;19.83;61.63;101097.34;4959929;28;45414;-70
2021/09/25 10:21:04;;;;;;;;;26.50;24.00;;;;;19.82;61.04;101094.72;4960379;28;45323;-67
2021/09/25 10:23:32;;;;;;;;;23.50;21.50;;;;;19.85;61.05;101089.97;4937184;28;45458;-70
2021/09/25 10:25:58;;;;;;;;;25.50;24.50;;;;;19.86;61.28;101088.13;4935673;28;45395;-67
2021/09/25 10:28:29;;;;;;;;;22.75;22.00;;;;;19.81;60.87;101069.47;4960047;28;45267;-68
2021/09/25 10:30:55;;;;;;;;;20.75;17.25;;;;;20.06;60.54;101092.22;4959625;28;45729;-68
2021/09/25 10:33:24;;;;;;;;;21.75;20.50;;;;;19.99;60.54;101070.09;4959952;28;45374;-68
2021/09/25 10:35:51;;;;;;;;;22.00;19.50;;;;;20.21;60.02;101102.03;4960353;28;45824;-68
2021/09/25 10:38:38;;;;;;;;;22.75;19.50;;;;;20.18;60.38;101091.41;4961989;28;45524;-68
2021/09/25 10:41:18;;;;;;;;;23.25;19.75;;;;;20.05;59.48;101068.81;4963105;28;45669;-69
2021/09/25 10:43:56;;;;;;;;;27.25;20.00;;;;;20.26;60.04;101089.03;4953182;28;45260;-72
2021/09/25 10:46:21;;;;;;;;;26.75;25.75;;;;;20.26;59.39;101069.19;4962051;28;45495;-70
2021/09/25 10:48:52;;;;;;;;;26.75;21.75;;;;;20.19;59.30;101044.34;4962810;28;45378;-68
2021/09/25 10:55:18;;;;;;;;;25.25;22.00;;;;;20.43;59.39;101052.66;4969025;28;45338;-67
2021/09/25 11:01:40;;;;;;;;;;;;;;;;;;;;;
2021/09/25 11:07:41;;;;;;;;;17.25;16.00;;;;;20.67;59.10;101049.25;4952918;28;45240;-68
2021/09/25 11:11:09;;;;;;;;;17.75;17.75;;;;;20.76;58.88;101047.72;4962534;28;45328;-67
2021/09/25 11:14:04;;;;;;;;;17.00;17.00;;;;;20.81;58.42;101042.84;4946188;28;45309;-69
2021/09/25 11:17:03;;;;;;;;;18.50;18.50;;;;;20.83;57.75;101043.59;4961107;28;48320;-69
2021/09/25 11:19:54;;;;;;;;;14.75;14.00;;;;;20.85;57.74;101028.97;4962554;28;45353;-69
2021/09/25 11:22:24;;;;;;;;;18.00;16.75;;;;;20.68;57.79;101000.31;4946548;28;45419;-69
2021/09/25 11:24:52;;;;;;;;;14.50;14.50;;;;;20.93;57.90;101022.97;4962137;28;45323;-68